Time;durP1;ratioP1;P1;durP2;ratioP2;P2;SDS_P1;SDS_P2;PMS_P1;PMS_P2;Temp;Humidity;BMP_temperature;BMP_pressure;BME280_temperature;BME280_humidity;BME280_pressure;Samples;Min_cycle;Max_cycle;Signal;HPM_P1;HPM_P2
2023/10/18 00:00:15;;;;;;;34.37;21.87;;;;;;;5.20;100.00;96117.78;4949355;28;102530;-78
2023/10/18 00:02:46;;;;;;;47.17;20.60;;;;;;;5.13;100.00;96117.88;4947491;28;105725;-77
2023/10/18 00:05:17;;;;;;;72.63;23.63;;;;;;;5.05;100.00;96109.47;4931779;28;101894;-77
2023/10/18 00:07:44;;;;;;;44.73;21.10;;;;;;;5.07;100.00;96107.44;4931775;28;105067;-77
2023/10/18 00:10:12;;;;;;;24.90;19.33;;;;;;;5.12;100.00;96111.00;4948734;28;102866;-77
2023/10/18 00:12:39;;;;;;;134.07;21.60;;;;;;;5.11;100.00;96105.94;4952548;28;101918;-77
2023/10/18 00:15:11;;;;;;;39.73;20.13;;;;;;;5.15;100.00;96107.09;4930976;28;105385;-77
2023/10/18 00:17:53;;;;;;;130.70;22.13;;;;;;;5.13;100.00;96101.25;4947845;28;101819;-77
2023/10/18 00:20:30;;;;;;;44.67;20.67;;;;;;;5.13;100.00;96098.63;4931396;28;105730;-78
2023/10/18 00:22:57;;;;;;;65.00;23.77;;;;;;;5.12;100.00;96100.44;4931035;28;104140;-78
2023/10/18 00:25:24;;;;;;;24.93;19.07;;;;;;;5.16;100.00;96101.63;4947800;28;102080;-78
2023/10/18 00:27:51;;;;;;;44.17;19.67;;;;;;;5.19;100.00;96089.81;4931416;28;105204;-78
2023/10/18 00:30:31;;;;;;;24.10;18.87;;;;;;;5.23;100.00;96091.00;4930680;28;105789;-78
2023/10/18 00:33:06;;;;;;;39.77;20.00;;;;;;;5.23;100.00;96088.34;4931533;28;102045;-78
2023/10/18 00:35:36;;;;;;;44.90;19.90;;;;;;;5.21;100.00;96078.03;4950541;28;104614;-78
2023/10/18 00:38:12;;;;;;;26.37;19.40;;;;;;;5.29;100.00;96079.56;4931286;28;102020;-78
2023/10/18 00:40:45;;;;;;;21.97;19.23;;;;;;;5.32;100.00;96076.44;4930333;28;105084;-78
2023/10/18 00:43:19;;;;;;;28.23;21.13;;;;;;;5.37;100.00;96076.56;4949220;28;103120;-78
2023/10/18 00:46:02;;;;;;;25.87;20.50;;;;;;;5.42;100.00;96076.72;4952207;28;101880;-78
2023/10/18 00:48:34;;;;;;;43.07;21.73;;;;;;;5.38;100.00;96075.53;4934657;28;103717;-78
2023/10/18 00:51:02;;;;;;;28.13;20.50;;;;;;;5.42;100.00;96076.72;4934012;28;103917;-78
2023/10/18 00:53:35;;;;;;;28.53;21.43;;;;;;;5.41;100.00;96072.47;4951937;28;102011;-78
2023/10/18 00:56:15;;;;;;;70.80;23.23;;;;;;;5.38;100.00;96067.63;4934442;28;103703;-78
2023/10/18 00:58:47;;;;;;;39.03;22.37;;;;;;;5.28;100.00;96072.66;4936892;28;101832;-78
2023/10/18 01:01:17;;;;;;;67.63;22.10;;;;;;;5.34;100.00;96069.13;4934389;28;105739;-78
2023/10/18 01:03:49;;;;;;;30.77;22.23;;;;;;;5.42;100.00;96060.88;4933963;28;105491;-78
2023/10/18 01:06:20;;;;;;;27.70;21.50;;;;;;;5.43;100.00;96049.31;4934312;28;101913;-78
2023/10/18 01:08:50;;;;;;;27.33;21.27;;;;;;;5.43;100.00;96050.13;4934334;28;105309;-78
2023/10/18 01:11:22;;;;;;;27.53;21.93;;;;;;;5.47;100.00;96051.28;4933688;28;104234;-78
2023/10/18 01:13:49;;;;;;;26.73;21.27;;;;;;;5.46;100.00;96043.59;4934190;28;101856;-79
2023/10/18 01:16:21;;;;;;;38.13;22.77;;;;;;;5.51;100.00;96049.78;4934040;28;105484;-79
2023/10/18 01:18:52;;;;;;;27.57;22.13;;;;;;;5.54;100.00;96053.81;4937018;28;105298;-79
2023/10/18 01:21:20;;;;;;;27.50;20.93;;;;;;;5.61;100.00;96044.75;4933965;28;103819;-79
2023/10/18 01:23:52;;;;;;;24.87;20.57;;;;;;;5.62;100.00;96043.72;4933498;28;105602;-79
2023/10/18 01:26:25;;;;;;;24.47;20.40;;;;;;;5.53;100.00;96039.00;4933974;28;102095;-79
2023/10/18 01:28:54;;;;;;;22.83;19.57;;;;;;;5.61;100.00;96036.03;4950375;28;103723;-79
2023/10/18 01:31:21;;;;;;;26.87;20.87;;;;;;;5.62;100.00;96035.81;4933266;28;105329;-78
2023/10/18 01:33:50;;;;;;;25.97;20.60;;;;;;;5.70;100.00;96034.66;4933920;28;101970;-78
2023/10/18 01:36:20;;;;;;;25.63;20.87;;;;;;;5.68;100.00;96023.56;4933871;28;105212;-78
2023/10/18 01:38:56;;;;;;;26.23;20.00;;;;;;;5.64;100.00;96025.84;4932567;28;105128;-79
2023/10/18 01:41:30;;;;;;;23.63;19.23;;;;;;;5.59;100.00;96028.38;4937148;28;101849;-79
2023/10/18 01:44:06;;;;;;;25.67;20.00;;;;;;;5.57;100.00;96025.13;4950873;28;103094;-79
2023/10/18 01:46:44;;;;;;;24.37;20.07;;;;;;;5.51;100.00;96020.78;4933623;28;101812;-79
2023/10/18 01:49:15;;;;;;;22.57;19.37;;;;;;;5.62;100.00;96008.66;4933915;28;102693;-79
2023/10/18 01:51:45;;;;;;;25.77;19.97;;;;;;;5.62;100.00;96011.28;4933012;28;105728;-79
2023/10/18 01:54:15;;;;;;;23.10;19.40;;;;;;;5.64;100.00;96011.84;4949406;28;101927;-78
2023/10/18 01:56:46;;;;;;;23.10;19.70;;;;;;;5.67;100.00;95999.00;4933631;28;105569;-76
2023/10/18 01:59:14;;;;;;;35.57;21.33;;;;;;;5.71;100.00;96004.63;4949166;28;105532;-76
2023/10/18 02:01:44;;;;;;;65.97;19.93;;;;;;;5.63;100.00;96005.75;4950994;28;101841;-76
2023/10/18 02:04:23;;;;;;;64.87;20.47;;;;;;;5.44;100.00;95998.16;4936091;28;105325;-76
2023/10/18 02:06:57;;;;;;;84.07;21.70;;;;;;;5.36;100.00;95990.63;4949500;28;101773;-77
2023/10/18 02:09:46;;;;;;;;;;;;;;;;;;;;;
2023/10/18 02:12:29;;;;;;;50.77;21.17;;;;;;;5.41;100.00;95993.38;4932614;28;105254;-76
2023/10/18 02:14:56;;;;;;;27.70;18.93;;;;;;;5.05;100.00;95993.53;4933291;28;101819;-76
2023/10/18 02:17:27;;;;;;;37.13;18.47;;;;;;;5.00;100.00;95993.38;4933305;28;104678;-76
2023/10/18 02:19:54;;;;;;;47.63;19.93;;;;;;;5.05;100.00;96004.06;4932233;28;106048;-76
2023/10/18 02:22:21;;;;;;;50.17;19.67;;;;;;;4.92;100.00;95999.00;4932964;28;101876;-76
2023/10/18 02:24:50;;;;;;;38.43;18.83;;;;;;;4.91;100.00;95989.50;4949295;28;103749;-76
2023/10/18 02:27:23;;;;;;;46.13;19.83;;;;;;;4.91;100.00;95992.91;4935894;28;105804;-77
2023/10/18 02:29:52;;;;;;;56.93;19.63;;;;;;;4.82;100.00;95988.19;4950449;28;104727;-77
2023/10/18 02:32:32;;;;;;;52.50;20.40;;;;;;;4.85;100.00;95979.84;4932602;28;105332;-77
2023/10/18 02:34:59;;;;;;;40.97;20.80;;;;;;;4.90;100.00;95990.50;4949141;28;102010;-75
2023/10/18 02:37:26;;;;;;;94.57;21.40;;;;;;;4.78;100.00;95987.03;4932907;28;105090;-75
2023/10/18 02:40:07;;;;;;;62.73;22.00;;;;;;;4.78;100.00;95989.66;4931598;28;105350;-75
2023/10/18 02:42:35;;;;;;;68.87;22.57;;;;;;;4.75;100.00;95979.59;4950635;28;101730;-75
2023/10/18 02:45:12;;;;;;;89.67;23.90;;;;;;;4.67;100.00;95982.50;4932973;28;105271;-75
2023/10/18 02:47:40;;;;;;;83.70;23.87;;;;;;;4.69;100.00;95978.63;4949792;28;102928;-75
2023/10/18 02:50:08;;;;;;;45.43;24.53;;;;;;;4.77;100.00;95975.69;4936175;28;101946;-76
2023/10/18 02:52:35;;;;;;;42.37;24.90;;;;;;;4.91;100.00;95968.41;4932048;28;105814;-76
2023/10/18 02:55:08;;;;;;;43.03;23.23;;;;;;;4.83;100.00;95973.97;4932674;28;101999;-76
2023/10/18 02:57:35;;;;;;;34.23;23.73;;;;;;;4.91;100.00;95966.56;4950346;28;102086;-76
2023/10/18 03:00:10;;;;;;;35.00;24.27;;;;;;;5.00;100.00;95959.13;4932180;28;105602;-76
2023/10/18 03:02:38;;;;;;;40.57;26.27;;;;;;;5.07;100.00;95959.88;4932603;28;101907;-76
2023/10/18 03:05:07;;;;;;;35.90;26.67;;;;;;;5.15;100.00;95955.06;4932022;28;105526;-76
2023/10/18 03:07:35;;;;;;;37.67;28.00;;;;;;;5.17;100.00;95946.91;4931385;28;103945;-76
2023/10/18 03:10:11;;;;;;;34.13;26.33;;;;;;;5.26;100.00;95948.19;4935755;28;102012;-76
2023/10/18 03:12:38;;;;;;;32.90;26.00;;;;;;;5.26;100.00;95942.91;4931968;28;105316;-76
2023/10/18 03:15:11;;;;;;;34.00;25.50;;;;;;;5.36;100.00;95941.31;4932334;28;102315;-76
2023/10/18 03:17:38;;;;;;;34.30;25.87;;;;;;;5.42;100.00;95932.50;4932166;28;104954;-76
2023/10/18 03:20:19;;;;;;;36.73;26.63;;;;;;;5.44;100.00;95929.63;4931303;28;105255;-76
2023/10/18 03:22:52;;;;;;;36.40;26.23;;;;;;;5.51;100.00;95925.06;4932253;28;101836;-75
2023/10/18 03:25:30;;;;;;;33.40;26.47;;;;;;;5.58;100.00;95925.72;4931927;28;104304;-75
2023/10/18 03:28:04;;;;;;;33.43;25.63;;;;;;;5.67;100.00;95919.09;4932155;28;101808;-75
2023/10/18 03:30:44;;;;;;;34.03;26.10;;;;;;;5.77;100.00;95917.44;4931710;28;101960;-75
2023/10/18 03:33:45;;;;;;;33.83;25.77;;;;;;;5.78;100.00;95915.63;4952077;28;102813;-80
2023/10/18 03:36:20;;;;;;;34.00;25.73;;;;;;;5.78;100.00;95915.63;4931831;28;102006;-76
2023/10/18 03:38:53;;;;;;;33.27;25.33;;;;;;;5.68;100.00;95903.00;4931778;28;104214;-76
2023/10/18 03:41:22;;;;;;;32.70;24.10;;;;;;;5.76;100.00;95901.84;4931484;28;104076;-75
2023/10/18 03:43:56;;;;;;;30.27;24.30;;;;;;;5.64;100.00;95895.78;4932017;28;102013;-75
2023/10/18 03:46:38;;;;;;;32.03;25.23;;;;;;;5.73;100.00;95899.69;4931808;28;103906;-76
2023/10/18 03:49:08;;;;;;;29.47;23.77;;;;;;;5.59;100.00;95890.41;4931446;28;104422;-76
2023/10/18 03:51:37;;;;;;;31.90;23.23;;;;;;;5.54;100.00;95892.94;4931886;28;102370;-75
2023/10/18 03:54:05;;;;;;;29.40;23.13;;;;;;;5.59;100.00;95887.78;4931967;28;104140;-76
2023/10/18 03:56:37;;;;;;;33.27;23.50;;;;;;;5.61;100.00;95891.78;4934715;28;103189;-76
2023/10/18 03:59:19;;;;;;;28.60;22.57;;;;;;;5.64;100.00;95893.16;4931911;28;105465;-77
2023/10/18 04:02:04;;;;;;;25.73;21.70;;;;;;;5.52;100.00;95892.38;4931026;28;104459;-77
2023/10/18 04:04:47;;;;;;;27.63;21.40;;;;;;;5.41;100.00;95887.91;4931760;28;101927;-79
2023/10/18 04:07:28;;;;;;;26.83;20.83;;;;;;;5.40;100.00;95886.31;4931719;28;105363;-79
2023/10/18 04:10:12;;;;;;;26.53;21.77;;;;;;;5.47;100.00;95876.44;4931329;28;105118;-76
2023/10/18 04:12:43;;;;;;;25.20;20.57;;;;;;;5.60;100.00;95878.81;4931591;28;101843;-76
2023/10/18 04:15:19;;;;;;;25.67;21.07;;;;;;;5.64;100.00;95877.34;4947948;28;105670;-77
2023/10/18 04:18:03;;;;;;;24.50;20.77;;;;;;;5.61;100.00;95868.03;4932677;28;104292;-75
2023/10/18 04:20:32;;;;;;;25.60;20.37;;;;;;;5.57;100.00;95872.16;4956143;28;101813;-75
2023/10/18 04:23:12;;;;;;;25.23;20.23;;;;;;;5.51;100.00;95861.75;4934725;28;105379;-75
2023/10/18 04:25:39;;;;;;;30.17;19.97;;;;;;;5.51;100.00;95864.41;4934956;28;101814;-75
2023/10/18 04:28:06;;;;;;;21.73;18.30;;;;;;;5.60;100.00;95860.34;4934761;28;105148;-76
2023/10/18 04:30:36;;;;;;;58.40;19.80;;;;;;;5.37;100.00;95868.31;4934256;28;105080;-74
2023/10/18 04:33:22;;;;;;;26.67;18.60;;;;;;;5.38;100.00;95873.34;4934554;28;102037;-74
2023/10/18 04:35:52;;;;;;;78.37;18.57;;;;;;;5.37;100.00;95863.03;4934811;28;105025;-75
2023/10/18 04:38:23;;;;;;;85.60;17.63;;;;;;;5.03;100.00;95858.56;4951754;28;102762;-79
2023/10/18 04:40:53;;;;;;;45.97;17.20;;;;;;;4.92;100.00;95854.09;4934120;28;101980;-78
2023/10/18 04:43:25;;;;;;;18.00;16.10;;;;;;;4.93;100.00;95866.22;4955466;28;103110;-77
2023/10/18 04:45:56;;;;;;;20.40;16.50;;;;;;;4.94;100.00;95857.28;4934654;28;101809;-77
2023/10/18 04:48:59;;;;;;;19.63;16.97;;;;;;;4.97;100.00;95854.22;4934542;28;105659;-75
2023/10/18 04:51:26;;;;;;;63.53;16.17;;;;;;;4.80;100.00;95854.06;4933570;28;104074;-75
2023/10/18 04:53:54;;;;;;;56.70;17.07;;;;;;;4.78;100.00;95857.97;4934508;28;101939;-75
2023/10/18 04:56:26;;;;;;;39.87;15.97;;;;;;;4.65;100.00;95858.97;4934546;28;105252;-75
2023/10/18 04:58:53;;;;;;;39.87;15.23;;;;;;;4.47;100.00;95864.31;4933930;28;105404;-75
2023/10/18 05:01:22;;;;;;;17.10;15.10;;;;;;;4.55;100.00;95853.47;4934055;28;102113;-75
2023/10/18 05:03:50;;;;;;;22.23;15.33;;;;;;;4.60;100.00;95853.59;4950611;28;105199;-74
2023/10/18 05:06:16;;;;;;;17.53;14.80;;;;;;;4.65;100.00;95860.81;4937201;28;105823;-74
2023/10/18 05:08:45;;;;;;;17.10;15.30;;;;;;;4.67;100.00;95850.84;4934244;28;105052;-74
2023/10/18 05:11:24;;;;;;;20.67;17.67;;;;;;;4.72;100.00;95856.25;4951591;28;103008;-74
2023/10/18 05:13:56;;;;;;;17.57;15.73;;;;;;;4.77;100.00;95859.00;4934048;28;102019;-74
2023/10/18 05:16:26;;;;;;;83.40;16.80;;;;;;;4.69;100.00;95851.44;4933890;28;104818;-74
2023/10/18 05:18:55;;;;;;;26.37;15.27;;;;;;;4.77;100.00;95848.47;4933185;28;105845;-74
2023/10/18 05:21:22;;;;;;;16.70;15.00;;;;;;;4.95;100.00;95843.09;4933914;28;101859;-74
2023/10/18 05:23:50;;;;;;;17.43;15.37;;;;;;;5.00;100.00;95841.38;4933952;28;105291;-74
2023/10/18 05:26:18;;;;;;;16.93;14.47;;;;;;;5.01;100.00;95839.53;4936667;28;105366;-74
2023/10/18 05:28:49;;;;;;;15.80;14.20;;;;;;;5.06;100.00;95842.28;4933221;28;104871;-74
2023/10/18 05:31:43;;;;;;;19.93;14.23;;;;;;;4.93;100.00;95838.06;4933332;28;104256;-74
2023/10/18 05:34:22;;;;;;;16.80;15.13;;;;;;;5.04;100.00;95844.38;4933986;28;101855;-74
2023/10/18 05:37:13;;;;;;;20.70;13.40;;;;;;;4.83;100.00;95837.00;4933891;28;104971;-74
2023/10/18 05:40:08;;;;;;;25.20;12.53;;;;;;;4.73;100.00;95836.78;4932724;28;105389;-74
2023/10/18 05:42:35;;;;;;;24.70;10.87;;;;;;;4.49;100.00;95840.41;4933618;28;101999;-74
2023/10/18 05:45:03;;;;;;;12.37;11.10;;;;;;;4.42;100.00;95840.50;4951313;28;102118;-75
2023/10/18 05:47:31;;;;;;;12.07;10.87;;;;;;;4.38;100.00;95835.91;4933231;28;104475;-75
2023/10/18 05:50:00;;;;;;;13.73;12.23;;;;;;;4.28;100.00;95828.56;4936971;28;101952;-75
2023/10/18 05:55:09;;;;;;;38.63;12.80;;;;;;;4.61;100.00;95830.69;4930282;28;102150;-75
2023/10/18 05:57:37;;;;;;;15.70;13.97;;;;;;;4.63;100.00;95812.84;4933442;28;103876;-75
2023/10/18 06:00:16;;;;;;;47.20;15.07;;;;;;;4.51;100.00;95818.09;4932734;28;105537;-75
2023/10/18 06:02:43;;;;;;;110.20;16.90;;;;;;;4.27;100.00;95826.16;4933398;28;102075;-75
2023/10/18 06:05:11;;;;;;;42.03;12.97;;;;;;;4.11;100.00;95822.34;4951289;28;102664;-75
2023/10/18 06:07:41;;;;;;;52.00;13.83;;;;;;;3.89;100.00;95828.31;4932935;28;105148;-75
2023/10/18 06:10:16;;;;;;;215.47;18.43;;;;;;;3.74;100.00;95823.44;4933248;28;101964;-75
2023/10/18 06:12:46;;;;;;;113.87;18.47;;;;;;;3.81;100.00;95833.84;4966272;28;102632;-73
2023/10/18 06:15:16;;;;;;;69.50;16.13;;;;;;;3.83;100.00;95835.25;4952161;28;102189;-73
2023/10/18 06:17:47;;;;;;;120.07;17.53;;;;;;;3.89;100.00;95841.47;4952670;28;105379;-73
2023/10/18 06:20:24;;;;;;;119.30;16.37;;;;;;;3.83;100.00;95843.13;4951705;28;105627;-73
2023/10/18 06:22:53;;;;;;;35.73;14.40;;;;;;;3.80;100.00;95840.97;4952722;28;101829;-73
2023/10/18 06:25:26;;;;;;;35.27;16.83;;;;;;;3.87;100.00;95840.88;4952524;28;105190;-73
2023/10/18 06:27:54;;;;;;;112.53;17.37;;;;;;;3.77;100.00;95843.25;4969666;28;102866;-73
2023/10/18 06:30:24;;;;;;;133.33;17.13;;;;;;;3.74;100.00;95835.78;4952298;28;101973;-73
2023/10/18 06:32:51;;;;;;;142.30;20.07;;;;;;;3.77;100.00;95836.13;4952500;28;105640;-73
2023/10/18 06:35:26;;;;;;;284.67;23.57;;;;;;;3.48;100.00;95838.72;4955340;28;105505;-73
2023/10/18 06:37:54;;;;;;;74.50;20.33;;;;;;;3.54;100.00;95843.91;4952774;28;104964;-73
2023/10/18 06:40:40;;;;;;;84.30;21.10;;;;;;;3.52;100.00;95834.63;4951046;28;105237;-73
2023/10/18 06:43:08;;;;;;;58.00;19.77;;;;;;;3.47;100.00;95847.63;4952177;28;101990;-73
2023/10/18 06:45:39;;;;;;;72.03;20.70;;;;;;;3.57;100.00;95850.53;4952202;28;105017;-73
2023/10/18 06:48:08;;;;;;;44.70;19.37;;;;;;;3.42;100.00;95858.00;4951792;28;105159;-73
2023/10/18 06:50:40;;;;;;;77.20;21.00;;;;;;;3.43;100.00;95856.97;4952176;28;102190;-74
2023/10/18 06:53:07;;;;;;;41.30;21.33;;;;;;;3.61;100.00;95860.38;4951984;28;105790;-74
2023/10/18 06:55:42;;;;;;;111.53;21.57;;;;;;;3.56;100.00;95860.25;4951666;28;104040;-75
2023/10/18 06:58:13;;;;;;;34.80;18.40;;;;;;;3.57;100.00;95856.63;4955409;28;101829;-75
2023/10/18 07:00:46;;;;;;;38.57;19.47;;;;;;;3.71;100.00;95854.63;4951376;28;105144;-75
2023/10/18 07:03:24;;;;;;;70.77;20.67;;;;;;;3.63;100.00;95847.84;4969874;28;102044;-75
2023/10/18 07:05:57;;;;;;;65.33;20.73;;;;;;;3.47;100.00;95847.63;4951829;28;104191;-75
2023/10/18 07:08:29;;;;;;;35.00;20.90;;;;;;;3.68;100.00;95852.44;4951678;28;105766;-75
2023/10/18 07:10:57;;;;;;;33.43;21.43;;;;;;;3.77;100.00;95846.66;4951825;28;101900;-75
2023/10/18 07:13:34;;;;;;;30.17;22.10;;;;;;;3.89;100.00;95838.81;4951591;28;106077;-75
2023/10/18 07:16:03;;;;;;;29.07;22.27;;;;;;;4.16;100.00;95830.34;4951429;28;106019;-74
2023/10/18 07:18:33;;;;;;;31.67;21.57;;;;;;;4.13;100.00;95830.81;4951466;28;101982;-75
2023/10/18 07:21:06;;;;;;;68.37;23.40;;;;;;;4.02;100.00;95836.00;4954680;28;105034;-75
2023/10/18 07:23:37;;;;;;;33.17;22.23;;;;;;;4.15;100.00;95827.97;4951696;28;102135;-75
2023/10/18 07:26:07;;;;;;;38.07;20.07;;;;;;;4.15;100.00;95828.75;4951193;28;107167;-74
2023/10/18 07:28:40;;;;;;;81.97;21.13;;;;;;;4.10;100.00;95825.19;4951196;28;105085;-74
2023/10/18 07:31:10;;;;;;;44.40;20.17;;;;;;;4.11;100.00;95832.06;4951565;28;101854;-74
2023/10/18 07:33:41;;;;;;;46.40;19.63;;;;;;;4.13;100.00;95825.53;4951643;28;104979;-75
2023/10/18 07:36:12;;;;;;;28.57;21.53;;;;;;;4.42;100.00;95818.66;4951016;28;105080;-74
2023/10/18 07:38:47;;;;;;;34.50;21.67;;;;;;;4.69;100.00;95814.56;4951465;28;101925;-75
2023/10/18 07:41:15;;;;;;;68.47;22.30;;;;;;;4.95;100.00;95814.09;4954222;28;104025;-75
2023/10/18 07:43:44;;;;;;;33.00;21.80;;;;;;;5.12;100.00;95812.41;4952433;28;101984;-76
2023/10/18 07:46:16;;;;;;;36.27;22.33;;;;;;;5.35;100.00;95809.75;4952423;28;104327;-76
2023/10/18 07:48:52;;;;;;;34.57;22.37;;;;;;;5.40;100.00;95807.22;4951951;28;105513;-79
2023/10/18 07:51:24;;;;;;;31.50;21.43;;;;;;;5.67;100.00;95805.66;4963694;28;102002;-78
2023/10/18 07:53:53;;;;;;;30.53;20.53;;;;;;;5.89;100.00;95810.06;4954555;28;105297;-77
2023/10/18 07:56:26;;;;;;;28.73;20.30;;;;;;;6.06;100.00;95797.72;4955013;28;105426;-77
2023/10/18 07:58:55;;;;;;;23.20;18.23;;;;;;;5.94;100.00;95804.91;4955024;28;101787;-77
2023/10/18 08:01:46;;;;;;;23.53;17.13;;;;;;;6.00;100.00;95801.31;4954980;28;105724;-77
2023/10/18 08:04:17;;;;;;;17.13;15.03;;;;;;;5.89;100.00;95796.09;4957262;28;105643;-77
2023/10/18 08:06:46;;;;;;;30.33;14.37;;;;;;;5.59;100.00;95795.47;4954962;28;105325;-77
2023/10/18 08:09:16;;;;;;;16.40;14.00;;;;;;;5.78;100.00;95784.50;4955030;28;105128;-76
2023/10/18 08:11:44;;;;;;;25.13;17.20;;;;;;;5.99;100.00;95783.06;4955592;28;101982;-78
2023/10/18 08:14:16;;;;;;;51.10;36.03;;;;;;;6.14;100.00;95784.16;4955695;28;105519;-78
2023/10/18 08:16:55;;;;;;;14.87;12.43;;;;;;;6.16;100.00;95776.03;4972822;28;103055;-78
2023/10/18 08:19:24;;;;;;;16.87;12.03;;;;;;;6.52;100.00;95767.63;4955422;28;101773;-79
2023/10/18 08:24:41;;;;;;;13.37;12.07;;;;;;;6.85;100.00;95770.25;4954760;28;105091;-74
2023/10/18 08:27:10;;;;;;;11.97;10.87;;;;;;;6.79;100.00;95761.47;4958483;28;101932;-74
2023/10/18 08:29:37;;;;;;;11.03;10.03;;;;;;;6.87;100.00;95762.91;4954313;28;105570;-75
2023/10/18 08:32:09;;;;;;;15.03;12.90;;;;;;;6.90;100.00;95757.13;4955441;28;101990;-75
2023/10/18 08:34:36;;;;;;;10.93;9.93;;;;;;;7.01;100.00;95756.22;4951668;28;105460;-75
2023/10/18 08:37:06;;;;;;;12.93;11.63;;;;;;;7.18;100.00;95749.88;4936169;28;104553;-75
2023/10/18 08:39:33;;;;;;;19.50;17.40;;;;;;;7.62;100.00;95761.25;4935577;28;101899;-75
2023/10/18 08:42:08;;;;;;;16.77;15.07;;;;;;;7.71;100.00;95755.31;4951720;28;105729;-74
2023/10/18 08:44:39;;;;;;;14.80;13.30;;;;;;;7.70;100.00;95758.97;4940782;28;104063;-74
2023/10/18 08:47:12;;;;;;;10.87;9.53;;;;;;;7.79;100.00;95762.78;4935363;28;101733;-74
2023/10/18 08:49:52;;;;;;;12.90;11.57;;;;;;;7.23;100.00;95762.34;4938800;28;105220;-74
2023/10/18 08:52:23;;;;;;;13.40;12.10;;;;;;;6.92;100.00;95766.41;4935239;28;101985;-74
2023/10/18 08:54:51;;;;;;;13.17;11.87;;;;;;;6.84;100.00;95764.19;4943156;28;104968;-75
2023/10/18 08:57:32;;;;;;;13.30;12.00;;;;;;;6.86;100.00;95762.09;4934998;28;105129;-75
2023/10/18 09:00:17;;;;;;;14.10;12.80;;;;;;;7.06;100.00;95756.31;4935491;28;101739;-76
2023/10/18 09:02:44;;;;;;;14.10;12.70;;;;;;;7.17;100.00;95750.91;4951632;28;105168;-75
2023/10/18 09:05:11;;;;;;;15.27;13.73;;;;;;;7.12;100.00;95753.50;4943870;28;105455;-75
2023/10/18 09:07:45;;;;;;;13.33;12.03;;;;;;;7.44;100.00;95741.22;4935157;28;101947;-75
2023/10/18 09:10:33;;;;;;;14.83;13.23;;;;;;;7.80;100.00;95745.06;4935252;28;105318;-75
2023/10/18 09:15:49;;;;;;;16.03;13.80;;;;;;;7.57;100.00;95737.38;4953256;28;105356;-74
2023/10/18 09:18:18;;;;;;;16.67;13.93;;;;;;;7.79;100.00;95736.31;4953748;28;105515;-74
2023/10/18 09:20:46;;;;;;;13.73;12.43;;;;;;;7.88;100.00;95734.84;4954551;28;101914;-74
2023/10/18 09:23:20;;;;;;;14.97;13.37;;;;;;;8.08;100.00;95736.88;4972146;28;102588;-76
2023/10/18 09:25:50;;;;;;;14.57;13.17;;;;;;;8.14;100.00;95744.63;4953755;28;105665;-77
2023/10/18 09:28:21;;;;;;;13.97;12.47;;;;;;;8.40;100.00;95737.75;4954295;28;102043;-75
2023/10/18 09:30:48;;;;;;;13.20;12.00;;;;;;;8.46;100.00;95726.13;4954443;28;105014;-76
2023/10/18 09:33:15;;;;;;;12.67;11.57;;;;;;;8.21;100.00;95736.50;4953777;28;104944;-76
2023/10/18 09:35:47;;;;;;;12.77;11.57;;;;;;;8.42;100.00;95725.03;4954141;28;101841;-76
2023/10/18 09:38:17;;;;;;;12.73;11.63;;;;;;;8.66;100.00;95723.63;4934414;28;105310;-76
2023/10/18 09:40:47;;;;;;;12.33;11.13;;;;;;;8.51;100.00;95732.25;4934598;28;101870;-76
2023/10/18 09:43:14;;;;;;;15.87;11.40;;;;;;;8.83;100.00;95730.38;4934811;28;104152;-76
2023/10/18 09:45:41;;;;;;;13.17;11.83;;;;;;;9.03;100.00;95730.53;4968469;28;103230;-76
2023/10/18 09:48:11;;;;;;;11.80;10.70;;;;;;;9.06;100.00;95737.94;4954313;28;101976;-76
2023/10/18 09:51:01;;;;;;;12.17;11.00;;;;;;;9.30;100.00;95730.38;4953889;28;104905;-82
2023/10/18 09:53:30;;;;;;;13.97;10.40;;;;;;;9.21;100.00;95724.00;4953520;28;105691;-76
2023/10/18 09:56:00;;;;;;;11.37;10.17;;;;;;;9.02;100.00;95710.38;4953844;28;101961;-76
2023/10/18 09:58:33;;;;;;;11.70;10.40;;;;;;;9.37;100.00;95701.78;4933952;28;105193;-75
2023/10/18 10:01:13;;;;;;;11.50;10.50;;;;;;;9.45;100.00;95701.28;4952071;28;101692;-75
2023/10/18 10:03:50;;;;;;;11.50;10.37;;;;;;;9.78;100.00;95706.97;4934398;28;105548;-76
2023/10/18 10:06:21;;;;;;;10.07;9.17;;;;;;;10.34;100.00;95692.75;4933771;28;105880;-77
2023/10/18 10:08:51;;;;;;;8.93;8.13;;;;;;;10.76;100.00;95692.47;4935299;28;101877;-77
2023/10/18 10:11:20;;;;;;;9.30;7.97;;;;;;;11.10;100.00;95685.47;4935389;28;105119;-77
2023/10/18 10:13:49;;;;;;;9.13;7.33;;;;;;;11.00;100.00;95686.31;4934802;28;105400;-76
2023/10/18 10:16:24;;;;;;;7.77;7.07;;;;;;;11.36;100.00;95692.31;4953903;28;102255;-76
2023/10/18 10:18:53;;;;;;;7.40;6.77;;;;;;;11.33;100.00;95690.22;4956489;28;104959;-76
2023/10/18 10:21:23;;;;;;;7.03;6.43;;;;;;;11.34;100.00;95687.25;4953354;28;101899;-76
2023/10/18 10:23:55;;;;;;;7.33;6.63;;;;;;;11.40;100.00;95688.84;4970490;28;102754;-77
2023/10/18 10:26:29;;;;;;;6.43;5.93;;;;;;;11.68;100.00;95690.09;4952871;28;105670;-77
2023/10/18 10:29:33;;;;;;;7.67;6.97;;;;;;;11.87;100.00;95685.72;4953671;28;102168;-77
2023/10/18 10:32:04;;;;;;;8.17;7.47;;;;;;;12.08;100.00;95681.88;4953269;28;105351;-76
2023/10/18 10:34:34;;;;;;;15.27;11.97;;;;;;;12.42;100.00;95675.50;4948864;28;105485;-77
2023/10/18 10:37:07;;;;;;;9.37;7.50;;;;;;;12.54;100.00;95675.16;4932996;28;102030;-76
2023/10/18 10:39:43;;;;;;;12.07;9.67;;;;;;;12.55;100.00;95666.06;4950946;28;102837;-76
2023/10/18 10:42:27;;;;;;;10.03;9.03;;;;;;;12.34;100.00;95651.28;4952798;28;105088;-76
2023/10/18 10:45:06;;;;;;;8.97;5.87;;;;;;;11.83;100.00;95658.84;4957903;28;105146;-76
2023/10/18 10:47:42;;;;;;;6.83;5.57;;;;;;;12.05;100.00;95661.13;4933033;28;105214;-76
2023/10/18 10:50:10;;;;;;;6.87;6.13;;;;;;;12.05;100.00;95658.44;4933528;28;101880;-77
2023/10/18 10:52:40;;;;;;;6.37;5.87;;;;;;;12.08;100.00;95649.88;4933453;28;105456;-77
2023/10/18 10:55:22;;;;;;;6.70;6.10;;;;;;;12.21;100.00;95642.06;4942173;28;105946;-77
2023/10/18 10:57:51;;;;;;;6.30;5.80;;;;;;;12.42;100.00;95637.38;4952885;28;101959;-77
2023/10/18 11:03:31;;;;;;;6.97;6.33;;;;;;;13.00;100.00;95630.97;4952051;28;105541;-77
2023/10/18 11:05:59;;;;;;;9.70;8.70;;;;;;;13.09;100.00;95626.59;4973299;28;102156;-77
2023/10/18 11:08:30;;;;;;;8.70;7.80;;;;;;;13.47;100.00;95625.63;4952161;28;105431;-77
2023/10/18 11:10:57;;;;;;;6.00;5.40;;;;;;;13.44;100.00;95612.81;4952756;28;101949;-77
2023/10/18 11:13:30;;;;;;;10.10;9.10;;;;;;;13.60;100.00;95615.03;4952923;28;104872;-77
2023/10/18 11:16:00;;;;;;;6.80;5.77;;;;;;;13.85;100.00;95616.56;4951593;28;104358;-77
2023/10/18 11:18:34;;;;;;;6.33;5.83;;;;;;;13.79;100.00;95617.72;4952168;28;101955;-77
2023/10/18 11:21:12;;;;;;;6.57;6.07;;;;;;;13.65;100.00;95611.47;4952892;28;105161;-77
2023/10/18 11:23:40;;;;;;;6.30;5.67;;;;;;;13.97;100.00;95601.66;4969451;28;104246;-77
2023/10/18 11:26:09;;;;;;;8.20;7.40;;;;;;;14.50;100.00;95596.84;4952313;28;101962;-77
2023/10/18 11:28:38;;;;;;;6.53;5.73;;;;;;;14.24;100.00;95583.09;4954404;28;105460;-77
2023/10/18 11:31:07;;;;;;;6.77;6.17;;;;;;;14.19;100.00;95585.00;4952327;28;102024;-76
2023/10/18 11:33:47;;;;;;;8.30;7.50;;;;;;;14.46;100.00;95582.44;4969927;28;102609;-77
2023/10/18 11:36:18;;;;;;;6.90;6.30;;;;;;;14.52;100.00;95570.56;4948144;28;105744;-77
2023/10/18 11:41:30;;;;;;;6.63;6.03;;;;;;;14.73;100.00;95553.88;4931843;28;104292;-77
2023/10/18 11:43:58;;;;;;;6.73;6.07;;;;;;;14.31;100.00;95551.41;4931899;28;104009;-76
2023/10/18 11:46:25;;;;;;;6.40;5.87;;;;;;;14.36;100.00;95542.50;4951146;28;102150;-76
2023/10/18 11:48:55;;;;;;;6.70;6.10;;;;;;;14.67;100.00;95540.88;4952436;28;105235;-77